Time;durP1;ratioP1;P1;durP2;ratioP2;P2;SDS_P1;SDS_P2;PMS_P1;PMS_P2;Temp;Humidity;BMP_temperature;BMP_pressure;BME280_temperature;BME280_humidity;BME280_pressure;Samples;Min_cycle;Max_cycle;Signal;HPM_P1;HPM_P2
2022/04/03 00:00:55;;;;;;;12.03;5.13;;;;;;;0.44;100.00;-19178.78;5027327;28;20045;-72
2022/04/03 00:03:20;;;;;;;11.03;5.30;;;;;;;0.42;100.00;-19178.25;5016453;28;20466;-72
2022/04/03 00:05:46;;;;;;;10.73;5.63;;;;;;;0.43;100.00;-19178.38;5029155;28;20040;-72
2022/04/03 00:08:15;;;;;;;12.13;5.33;;;;;;;0.41;100.00;-19178.00;5028934;28;20064;-72
2022/04/03 00:10:44;;;;;;;8.83;4.50;;;;;;;0.42;100.00;-19178.25;5023205;28;20017;-72
2022/04/03 00:13:09;;;;;;;13.73;4.57;;;;;;;0.43;100.00;-19178.53;5023573;28;20030;-73
2022/04/03 00:15:38;;;;;;;7.50;4.57;;;;;;;0.42;100.00;-19178.25;5022439;28;20067;-73
2022/04/03 00:18:04;;;;;;;8.07;4.30;;;;;;;0.40;100.00;-19177.72;5026286;28;20428;-72
2022/04/03 00:20:29;;;;;;;8.87;4.40;;;;;;;0.40;100.00;-19177.72;5030390;28;20109;-72
2022/04/03 00:22:54;;;;;;;8.17;4.40;;;;;;;0.39;100.00;-19177.47;5029431;28;20057;-72
2022/04/03 00:25:20;;;;;;;8.53;4.27;;;;;;;0.40;100.00;-19177.72;5028328;28;20807;-72
2022/04/03 00:27:46;;;;;;;10.93;4.73;;;;;;;0.42;100.00;-19178.25;5020016;28;20032;-72
2022/04/03 00:30:12;;;;;;;8.40;4.17;;;;;;;0.41;100.00;-19178.00;5025864;28;20024;-72
2022/04/03 00:32:38;;;;;;;10.53;4.83;;;;;;;0.42;100.00;-19178.25;5028844;28;20028;-72
2022/04/03 00:35:04;;;;;;;10.37;4.50;;;;;;;0.43;100.00;-19178.38;5026850;28;20489;-72
2022/04/03 00:37:30;;;;;;;8.30;4.33;;;;;;;0.42;100.00;-19178.25;5027608;28;20432;-72
2022/04/03 00:39:56;;;;;;;8.10;4.30;;;;;;;0.44;100.00;-19178.66;5024437;28;20104;-72
2022/04/03 00:42:21;;;;;;;8.77;4.17;;;;;;;0.47;100.00;-19179.44;5027044;28;20052;-72
2022/04/03 00:44:47;;;;;;;11.13;4.33;;;;;;;0.46;100.00;-19179.31;5025419;28;20025;-72
2022/04/03 00:47:16;;;;;;;9.57;4.10;;;;;;;0.46;100.00;-19179.19;5026970;28;20436;-72
2022/04/03 00:49:41;;;;;;;7.13;3.90;;;;;;;0.44;100.00;-19178.78;5024716;28;20533;-72
2022/04/03 00:52:08;;;;;;;7.90;4.20;;;;;;;0.43;100.00;-19178.53;5024988;28;20113;-72
2022/04/03 00:54:34;;;;;;;10.67;4.63;;;;;;;0.44;100.00;-19178.78;5025992;28;20029;-72
2022/04/03 00:56:59;;;;;;;10.07;5.60;;;;;;;0.42;100.00;-19178.25;5018920;28;20084;-72
2022/04/03 00:59:25;;;;;;;8.23;4.40;;;;;;;0.40;100.00;-19177.72;5023649;28;20109;-72
2022/04/03 01:01:50;;;;;;;9.13;4.63;;;;;;;0.35;100.00;-19176.38;5029062;28;20025;-72
2022/04/03 01:04:16;;;;;;;9.37;4.67;;;;;;;0.36;100.00;-19176.66;5023268;28;20072;-72
2022/04/03 01:06:41;;;;;;;7.83;4.57;;;;;;;0.34;100.00;-19176.13;5029502;28;20018;-72
2022/04/03 01:09:07;;;;;;;11.47;4.73;;;;;;;0.32;100.00;-12887.16;5022673;28;20026;-72
2022/04/03 01:11:33;;;;;;;12.60;4.90;;;;;;;0.33;100.00;-5492.22;5025185;28;20370;-72
2022/04/03 01:13:58;;;;;;;8.10;4.47;;;;;;;0.35;100.00;1852.41;5016501;28;20040;-72
2022/04/03 01:16:24;;;;;;;11.80;4.70;;;;;;;0.34;100.00;10174.72;5016478;28;20018;-72
2022/04/03 01:18:50;;;;;;;9.27;4.77;;;;;;;0.35;100.00;15306.94;5024211;28;20404;-72
2022/04/03 01:21:16;;;;;;;8.60;4.73;;;;;;;0.36;100.00;23342.13;5024166;28;20029;-72
2022/04/03 01:23:42;;;;;;;11.50;4.93;;;;;;;0.35;100.00;31395.59;5024670;28;20044;-72
2022/04/03 01:26:08;;;;;;;8.83;4.80;;;;;;;0.33;100.00;39144.78;5023550;28;20029;-72
2022/04/03 01:28:33;;;;;;;9.33;5.00;;;;;;;0.32;100.00;48532.50;5023421;28;20087;-72
2022/04/03 01:30:58;;;;;;;11.00;5.03;;;;;;;0.29;100.00;50151.16;5023996;28;20029;-72
2022/04/03 01:33:24;;;;;;;9.93;5.10;;;;;;;0.26;100.00;51770.44;5022965;28;20025;-72
2022/04/03 01:35:49;;;;;;;9.10;4.93;;;;;;;0.23;100.00;53066.19;5026698;28;20508;-72
2022/04/03 01:38:15;;;;;;;9.73;4.83;;;;;;;0.21;100.00;51441.38;5019397;28;20076;-72
2022/04/03 01:40:41;;;;;;;9.77;4.80;;;;;;;0.23;100.00;46904.78;5022877;28;20151;-72
2022/04/03 01:43:08;;;;;;;9.90;4.90;;;;;;;0.22;100.00;42370.88;5026191;28;20034;-72
2022/04/03 01:45:35;;;;;;;8.67;4.80;;;;;;;0.17;100.00;36549.13;5029104;28;20026;-72
2022/04/03 01:48:01;;;;;;;12.13;4.97;;;;;;;0.10;100.00;30414.56;5026312;28;20084;-72
2022/04/03 01:50:27;;;;;;;9.37;4.77;;;;;;;-0.05;100.00;29117.63;5023680;28;20017;-72
2022/04/03 01:52:52;;;;;;;11.27;4.73;;;;;;;-0.23;100.00;33619.38;5028679;28;20811;-72
2022/04/03 01:55:18;;;;;;;9.57;4.90;;;;;;;-0.37;100.00;42973.47;5030099;28;20527;-72
2022/04/03 01:57:44;;;;;;;11.43;4.90;;;;;;;-0.46;100.00;52353.59;5025788;28;20385;-72
2022/04/03 02:00:10;;;;;;;12.53;5.57;;;;;;;-0.65;100.00;57524.47;5026073;28;20026;-72
2022/04/03 02:02:37;;;;;;;11.67;4.97;;;;;;;-0.78;100.00;62707.13;5031767;28;20027;-72
2022/04/03 02:05:04;;;;;;;10.47;5.27;;;;;;;-0.94;100.00;66590.13;5030504;28;20029;-72
2022/04/03 02:07:30;;;;;;;10.43;5.50;;;;;;;-1.03;100.00;71786.66;5031495;28;20024;-72
2022/04/03 02:09:56;;;;;;;11.57;5.50;;;;;;;-1.17;100.00;75352.59;5028224;28;20024;-72
2022/04/03 02:12:21;;;;;;;10.73;5.80;;;;;;;-1.24;100.00;79909.88;5026716;28;20479;-72
2022/04/03 02:14:47;;;;;;;11.53;5.70;;;;;;;-1.29;100.00;83168.41;5025315;28;20033;-72
2022/04/03 02:17:12;;;;;;;11.33;5.73;;;;;;;-1.38;100.00;84134.44;5026645;28;20017;-72
2022/04/03 02:19:37;;;;;;;11.20;5.70;;;;;;;-1.43;100.00;87395.88;5023619;28;20084;-72
2022/04/03 02:22:03;;;;;;;13.53;5.73;;;;;;;-1.51;100.00;90327.13;5029073;28;20381;-72
2022/04/03 02:24:28;;;;;;;12.67;5.93;;;;;;;-1.62;100.00;92927.78;5028962;28;20417;-72
2022/04/03 02:26:54;;;;;;;13.30;5.87;;;;;;;-1.64;100.00;96527.50;5011842;28;20021;-72
2022/04/03 02:29:19;;;;;;;12.00;5.30;;;;;;;-1.62;100.00;99154.50;5030423;28;20531;-72
2022/04/03 02:31:44;;;;;;;11.20;6.23;;;;;;;-1.66;100.00;101114.94;5032512;28;20537;-72
2022/04/03 02:34:10;;;;;;;10.87;5.93;;;;;;;-1.72;100.00;102416.97;5029982;28;20029;-71
2022/04/03 02:36:35;;;;;;;10.50;5.57;;;;;;;-1.76;100.00;104052.09;5029573;28;20013;-72
2022/04/03 02:39:01;;;;;;;9.23;5.73;;;;;;;-1.78;100.00;105691.50;5028197;28;20053;-72
2022/04/03 02:41:27;;;;;;;10.50;5.90;;;;;;;-1.82;100.00;106669.72;5024922;28;20461;-72
2022/04/03 02:43:53;;;;;;;13.13;5.97;;;;;;;-1.85;100.00;108307.25;5030688;28;20028;-72
2022/04/03 02:46:18;;;;;;;11.93;5.73;;;;;;;-1.83;100.00;109626.19;5032281;28;20272;-72
2022/04/03 02:48:43;;;;;;;10.50;5.73;;;;;;;-1.88;100.00;110603.22;5029822;28;20028;-72
2022/04/03 02:51:09;;;;;;;10.60;5.60;;;;;;;-1.95;100.00;111576.44;5031719;28;20039;-72
2022/04/03 02:53:34;;;;;;;13.27;6.87;;;;;;;-1.98;100.00;112886.63;5028298;28;20021;-71
2022/04/03 02:55:59;;;;;;;11.13;5.70;;;;;;;-2.06;100.00;114187.19;5031911;28;20056;-71
2022/04/03 02:58:25;;;;;;;12.93;6.20;;;;;;;-2.15;100.00;115485.91;5030567;28;20026;-71
2022/04/03 03:00:50;;;;;;;13.53;6.07;;;;;;;-2.20;100.00;117452.53;5031631;28;20022;-71
2022/04/03 03:03:15;;;;;;;12.77;6.03;;;;;;;-2.41;100.00;118398.50;5030744;28;20318;-71
2022/04/03 03:05:42;;;;;;;13.03;6.37;;;;;;;-2.60;100.00;119017.78;5031395;28;20716;-71
2022/04/03 03:08:08;;;;;;;13.47;6.23;;;;;;;-2.65;100.00;121313.13;5030202;28;20080;-71
2022/04/03 03:10:33;;;;;;;13.47;6.70;;;;;;;-2.71;100.00;123938.16;5023283;28;20289;-71
2022/04/03 03:12:59;;;;;;;15.03;7.53;;;;;;;-2.59;100.00;126931.16;5025621;28;20539;-71
2022/04/03 03:15:24;;;;;;;17.63;7.60;;;;;;;-2.45;100.00;129274.97;5025354;28;20021;-71
2022/04/03 03:17:50;;;;;;;13.40;7.20;;;;;;;-2.44;100.00;130268.44;5019800;28;20042;-71
2022/04/03 03:20:16;;;;;;;16.90;8.33;;;;;;;-2.39;100.00;131600.81;5031293;28;20071;-71
2022/04/03 03:22:42;;;;;;;14.40;7.07;;;;;;;-2.28;100.00;132617.03;5029467;28;20036;-71
2022/04/03 03:25:08;;;;;;;18.93;7.60;;;;;;;-2.20;100.00;133629.22;5031112;28;20025;-71
2022/04/03 03:27:35;;;;;;;15.20;6.70;;;;;;;-2.03;100.00;134991.88;5029690;28;20443;-71
2022/04/03 03:30:01;;;;;;;14.57;6.90;;;;;;;-1.85;100.00;135365.44;5008703;28;20698;-71
2022/04/03 03:32:27;;;;;;;11.93;7.20;;;;;;;-1.78;100.00;134057.09;5014240;28;20272;-72
2022/04/03 03:34:52;;;;;;;11.00;6.13;;;;;;;-1.66;100.00;132759.28;5029383;28;20029;-71
2022/04/03 03:37:18;;;;;;;18.33;6.13;;;;;;;-1.59;100.00;130788.03;5030942;28;20374;-71
2022/04/03 03:39:43;;;;;;;13.90;6.73;;;;;;;-1.57;100.00;128807.38;5028090;28;20025;-71
2022/04/03 03:42:09;;;;;;;11.77;5.80;;;;;;;-1.55;100.00;127159.38;5026170;28;20029;-71
2022/04/03 03:44:34;;;;;;;12.60;6.40;;;;;;;-1.49;100.00;125518.56;5027634;28;20030;-71
2022/04/03 03:46:59;;;;;;;11.77;5.67;;;;;;;-1.45;100.00;123543.56;5010352;28;20140;-71
2022/04/03 03:49:26;;;;;;;14.20;6.00;;;;;;;-1.45;100.00;121232.94;5028782;28;20025;-71
2022/04/03 03:51:52;;;;;;;14.33;5.53;;;;;;;-1.44;100.00;119584.72;5023922;28;20084;-71
2022/04/03 03:54:17;;;;;;;10.37;5.47;;;;;;;-1.42;100.00;117938.22;5023643;28;20037;-71
2022/04/03 03:56:43;;;;;;;11.13;5.40;;;;;;;-1.34;100.00;114986.91;5024873;28;20351;-71
2022/04/03 03:59:08;;;;;;;10.97;5.10;;;;;;;-1.25;100.00;110393.72;5028464;28;20100;-70
2022/04/03 04:01:34;;;;;;;9.03;5.30;;;;;;;-1.27;100.00;106112.63;5030436;28;20022;-71
2022/04/03 04:04:00;;;;;;;11.70;5.40;;;;;;;-1.30;100.00;103476.78;5024273;28;20083;-70
2022/04/03 04:06:26;;;;;;;10.03;5.30;;;;;;;-1.30;100.00;101178.56;5030339;28;20029;-71
2022/04/03 04:08:51;;;;;;;10.70;5.70;;;;;;;-1.25;100.00;98561.47;5028789;28;20036;-70
2022/04/03 04:11:17;;;;;;;12.47;5.90;;;;;;;-1.17;100.00;94965.72;5011867;28;20029;-71
2022/04/03 04:13:42;;;;;;;11.23;5.67;;;;;;;-1.10;100.00;90718.63;5027518;28;20029;-71
2022/04/03 04:16:10;;;;;;;10.43;5.37;;;;;;;-1.05;100.00;85163.13;5038658;28;20025;-71
2022/04/03 04:18:36;;;;;;;10.73;5.37;;;;;;;-1.02;100.00;81573.53;5028736;28;20029;-71
2022/04/03 04:21:03;;;;;;;10.97;5.47;;;;;;;-1.04;100.00;80590.25;5042389;28;20269;-71
2022/04/03 04:23:29;;;;;;;10.63;5.73;;;;;;;-1.07;100.00;80913.25;5026360;28;20025;-71
2022/04/03 04:25:55;;;;;;;12.57;6.60;;;;;;;-1.07;100.00;81565.66;5051744;28;20488;-71
2022/04/03 04:28:20;;;;;;;10.00;5.77;;;;;;;-1.08;100.00;82871.59;5044493;28;20472;-71
2022/04/03 04:30:45;;;;;;;15.47;5.70;;;;;;;-1.11;100.00;84174.28;5049089;28;20017;-70
2022/04/03 04:33:11;;;;;;;12.30;6.03;;;;;;;-1.15;100.00;83840.88;5029491;28;20064;-71
2022/04/03 04:35:36;;;;;;;11.77;5.93;;;;;;;-1.15;100.00;79921.81;5034160;28;20116;-71
2022/04/03 04:38:02;;;;;;;12.00;6.13;;;;;;;-1.24;100.00;76321.88;5039880;28;20072;-71
2022/04/03 04:40:28;;;;;;;12.30;6.27;;;;;;;-1.32;100.00;74030.78;5029839;28;20025;-71
2022/04/03 04:42:55;;;;;;;10.40;5.70;;;;;;;-1.53;100.00;73026.66;5031501;28;20041;-71
2022/04/03 04:45:21;;;;;;;10.97;5.83;;;;;;;-1.74;100.00;74301.63;5030445;28;20025;-71
2022/04/03 04:47:48;;;;;;;11.97;5.73;;;;;;;-1.90;100.00;79493.47;5045828;28;20362;-71
2022/04/03 04:50:14;;;;;;;10.53;5.57;;;;;;;-2.04;100.00;84039.31;5040348;28;20283;-71
2022/04/03 04:52:41;;;;;;;11.47;5.40;;;;;;;-2.05;100.00;89262.78;5034043;28;20547;-71
2022/04/03 04:55:08;;;;;;;10.90;5.60;;;;;;;-1.99;100.00;93850.94;5043803;28;20821;-71
2022/04/03 04:57:34;;;;;;;10.00;5.10;;;;;;;-1.90;100.00;96485.28;5050558;28;20267;-71
2022/04/03 05:00:00;;;;;;;11.43;5.67;;;;;;;-1.83;100.00;96497.09;5031446;28;20301;-71
2022/04/03 05:02:26;;;;;;;14.57;5.87;;;;;;;-1.74;100.00;95855.34;5044668;28;20268;-71
2022/04/03 05:04:52;;;;;;;12.20;5.63;;;;;;;-1.77;100.00;95523.59;5023286;28;20085;-71
2022/04/03 05:07:17;;;;;;;10.57;5.13;;;;;;;-1.77;100.00;96834.03;5031534;28;20260;-71
2022/04/03 05:09:44;;;;;;;11.40;5.33;;;;;;;-1.69;100.00;97830.03;5030332;28;20488;-71
2022/04/03 05:12:10;;;;;;;10.93;5.00;;;;;;;-1.69;100.00;98158.72;5032304;28;20060;-71
2022/04/03 05:14:37;;;;;;;13.13;5.53;;;;;;;-1.63;100.00;99152.75;5038005;28;20275;-71
2022/04/03 05:17:04;;;;;;;13.47;5.27;;;;;;;-1.53;100.00;98841.22;5042051;28;20256;-71
2022/04/03 05:19:29;;;;;;;9.53;5.07;;;;;;;-1.42;100.00;97548.28;5033538;28;20718;-71
2022/04/03 05:21:54;;;;;;;13.63;5.40;;;;;;;-1.36;100.00;96246.91;5039302;28;20300;-71
2022/04/03 05:24:20;;;;;;;8.43;4.63;;;;;;;-1.25;100.00;93315.59;5029523;28;20266;-71
2022/04/03 05:26:45;;;;;;;12.63;5.03;;;;;;;-1.22;100.00;90700.38;5049534;28;20024;-71
2022/04/03 05:29:11;;;;;;;9.60;4.97;;;;;;;-1.21;100.00;88410.97;5043550;28;20091;-71
2022/04/03 05:31:36;;;;;;;12.07;5.00;;;;;;;-1.17;100.00;84818.34;5043856;28;20020;-71
2022/04/03 05:34:02;;;;;;;10.57;4.90;;;;;;;-1.14;100.00;82208.81;5023714;28;20032;-70
2022/04/03 05:36:28;;;;;;;12.63;5.23;;;;;;;-1.06;100.00;78955.94;5036487;28;20497;-71
2022/04/03 05:38:53;;;;;;;9.60;4.50;;;;;;;-0.94;100.00;74730.97;5014161;28;20026;-71
2022/04/03 05:41:19;;;;;;;13.03;5.40;;;;;;;-0.79;100.00;69211.38;5034992;28;20022;-71
2022/04/03 05:43:44;;;;;;;11.20;5.20;;;;;;;-0.60;100.00;63377.31;5030411;28;20026;-71
2022/04/03 05:46:10;;;;;;;8.93;4.63;;;;;;;-0.50;100.00;56890.59;5035188;28;20033;-71
2022/04/03 05:48:36;;;;;;;8.47;4.37;;;;;;;-0.44;100.00;49438.91;5031752;28;20025;-71
2022/04/03 05:51:01;;;;;;;12.17;5.50;;;;;;;-0.46;100.00;43289.75;5026823;28;20104;-71
2022/04/03 05:53:27;;;;;;;10.93;5.63;;;;;;;-0.43;100.00;37800.28;5034563;28;20045;-71
2022/04/03 05:55:52;;;;;;;11.47;6.57;;;;;;;-0.36;100.00;33288.97;5034665;28;20413;-71
2022/04/03 05:58:18;;;;;;;14.90;7.87;;;;;;;-0.33;100.00;28136.97;5028524;28;20029;-71
2022/04/03 06:00:43;;;;;;;14.20;8.27;;;;;;;-0.32;100.00;22669.63;5046590;28;20028;-71
2022/04/03 06:03:08;;;;;;;17.33;9.83;;;;;;;-0.22;100.00;14327.72;5031361;28;20025;-71
2022/04/03 06:05:34;;;;;;;15.07;8.70;;;;;;;-0.19;100.00;13046.22;5034798;28;20021;-71
2022/04/03 06:08:00;;;;;;;13.07;8.00;;;;;;;-0.19;100.00;5683.06;5030929;28;20478;-71
2022/04/03 06:10:26;;;;;;;9.43;5.37;;;;;;;-0.23;100.00;-1344.72;5018032;28;20052;-71
2022/04/03 06:12:58;;;;;;;12.07;5.80;;;;;;;-0.13;100.00;-5171.72;5044755;28;20061;-71
2022/04/03 06:15:25;;;;;;;8.67;4.30;;;;;;;0.16;100.00;-11544.56;5032018;28;20531;-71
2022/04/03 06:17:52;;;;;;;8.57;3.83;;;;;;;0.04;100.00;-19168.16;5014962;28;20098;-71
2022/04/03 06:20:18;;;;;;;8.77;4.33;;;;;;;0.16;100.00;-19171.34;5035709;28;20036;-70
2022/04/03 06:22:44;;;;;;;10.97;3.90;;;;;;;1.37;100.00;-19202.97;5042295;28;20029;-70
2022/04/03 06:25:10;;;;;;;7.93;4.23;;;;;;;1.93;100.00;-19217.72;5035935;28;20385;-70
2022/04/03 06:27:36;;;;;;;10.50;4.70;;;;;;;2.93;100.00;-19243.75;5045915;28;20025;-70
2022/04/03 06:30:01;;;;;;;9.00;3.60;;;;;;;3.31;100.00;-19253.69;5034434;28;20386;-70
2022/04/03 06:32:27;;;;;;;7.83;3.47;;;;;;;3.73;100.00;-19264.56;5035275;28;20079;-69
2022/04/03 06:34:52;;;;;;;6.00;2.93;;;;;;;3.37;100.00;-19255.28;5033947;28;20033;-69
2022/04/03 06:37:17;;;;;;;6.23;2.70;;;;;;;3.60;100.00;-19261.13;5040402;28;20025;-69
2022/04/03 06:39:43;;;;;;;7.13;2.70;;;;;;;3.38;100.00;-19255.41;5025356;28;20037;-69
2022/04/03 06:42:09;;;;;;;7.10;3.07;;;;;;;3.70;100.00;-19263.91;5025170;28;20083;-69
2022/04/03 06:44:35;;;;;;;5.07;2.60;;;;;;;4.10;100.00;-19274.25;5027748;28;20061;-69
2022/04/03 06:47:00;;;;;;;6.80;2.60;;;;;;;4.30;100.00;-19279.53;5027872;28;20036;-70
2022/04/03 06:49:29;;;;;;;7.20;2.87;;;;;;;4.81;100.00;-19292.66;5025200;28;20522;-70
2022/04/03 06:51:55;;;;;;;7.77;3.13;;;;;;;3.87;100.00;-19268.28;5031421;28;20033;-69
2022/04/03 06:54:20;;;;;;;5.30;2.73;;;;;;;4.40;100.00;-19282.06;5015418;28;20425;-70
2022/04/03 06:56:46;;;;;;;10.60;2.90;;;;;;;4.17;100.00;-19275.97;5025028;28;20484;-70
2022/04/03 06:59:11;;;;;;;5.27;2.63;;;;;;;4.75;100.00;-19291.06;5026587;28;20061;-69
2022/04/03 07:01:36;;;;;;;9.53;2.80;;;;;;;3.95;100.00;-19270.25;5026629;28;20022;-70
2022/04/03 07:04:02;;;;;;;6.93;3.57;;;;;;;3.83;100.00;-19267.22;5010403;28;20033;-71
2022/04/03 07:06:27;;;;;;;5.40;2.83;;;;;;;3.68;100.00;-19263.25;5020759;28;20512;-71
2022/04/03 07:08:53;;;;;;;6.63;2.80;;;;;;;3.61;100.00;-19261.38;5024424;28;20037;-71
2022/04/03 07:11:19;;;;;;;5.00;2.80;;;;;;;3.52;100.00;-19259.25;5032872;28;20116;-71
2022/04/03 07:13:45;;;;;;;6.10;2.70;;;;;;;3.44;100.00;-19257.00;5024748;28;20044;-71
2022/04/03 07:16:10;;;;;;;5.43;2.50;;;;;;;3.10;100.00;-19248.25;5011604;28;20052;-71
2022/04/03 07:18:36;;;;;;;8.90;3.27;;;;;;;3.38;100.00;-19255.53;5031521;28;20024;-71
2022/04/03 07:21:02;;;;;;;9.13;2.73;;;;;;;3.53;100.00;-19259.53;5030734;28;20029;-71
2022/04/03 07:23:28;;;;;;;6.87;2.53;;;;;;;3.77;100.00;-19265.63;5032468;28;20052;-71
2022/04/03 07:25:53;;;;;;;5.67;2.40;;;;;;;3.92;100.00;-19269.59;5032163;28;20052;-71
2022/04/03 07:28:19;;;;;;;5.93;3.07;;;;;;;5.19;100.00;-19302.72;5024486;28;20026;-71
2022/04/03 07:30:44;;;;;;;4.40;2.20;;;;;;;5.97;100.00;-19322.84;5039719;28;20472;-71
2022/04/03 07:33:10;;;;;;;5.27;2.07;;;;;;;5.00;100.00;-19297.69;5037406;28;20061;-71
2022/04/03 07:35:37;;;;;;;4.67;2.30;;;;;;;4.55;100.00;-19286.03;5028328;28;20029;-71
2022/04/03 07:38:02;;;;;;;7.03;1.80;;;;;;;3.97;100.00;-19270.78;5027436;28;20044;-71
2022/04/03 07:40:28;;;;;;;4.93;1.83;;;;;;;3.87;100.00;-19268.13;5024977;28;20481;-71
2022/04/03 07:42:53;;;;;;;4.60;2.10;;;;;;;4.32;100.00;-19279.94;5027689;28;20137;-71
2022/04/03 07:45:19;;;;;;;3.60;1.90;;;;;;;4.40;100.00;-19282.19;5034023;28;20029;-70
2022/04/03 07:47:49;;;;;;;5.03;1.70;;;;;;;4.19;100.00;-19276.50;5013192;28;20093;-71
2022/04/03 07:50:16;;;;;;;4.87;1.60;;;;;;;3.65;100.00;-19262.44;5010724;28;20116;-71
2022/04/03 07:52:41;;;;;;;4.57;1.60;;;;;;;3.55;100.00;-19259.94;5025411;28;20037;-71
2022/04/03 07:55:10;;;;;;;4.03;1.97;;;;;;;3.33;100.00;-19254.09;5019118;28;20037;-71
2022/04/03 07:57:39;;;;;;;3.73;1.73;;;;;;;3.61;100.00;-19261.38;5028644;28;20195;-71
2022/04/03 08:00:07;;;;;;;3.47;1.90;;;;;;;3.34;100.00;-19254.47;5021409;28;20083;-71
2022/04/03 08:02:34;;;;;;;4.57;1.90;;;;;;;3.63;100.00;-19261.91;5035829;28;20051;-71
2022/04/03 08:05:00;;;;;;;6.50;1.90;;;;;;;3.75;100.00;-19265.22;5031400;28;20125;-71
2022/04/03 08:07:36;;;;;;;3.90;1.90;;;;;;;3.61;100.00;-19261.38;5035135;28;20112;-71
2022/04/03 08:10:02;;;;;;;5.23;1.97;;;;;;;3.93;100.00;-19269.88;5027959;28;20076;-72
2022/04/03 08:12:27;;;;;;;4.20;2.10;;;;;;;3.80;100.00;-19266.41;5037936;28;20040;-71
2022/04/03 08:14:53;;;;;;;5.37;2.00;;;;;;;4.17;100.00;-19275.97;5028331;28;20489;-71
2022/04/03 08:17:18;;;;;;;4.20;2.07;;;;;;;4.44;100.00;-19283.13;5030333;28;20021;-71
2022/04/03 08:19:44;;;;;;;6.50;1.80;;;;;;;3.70;100.00;-19263.91;5040567;28;20116;-71
2022/04/03 08:22:09;;;;;;;6.80;1.90;;;;;;;4.11;100.00;-19274.50;5047390;28;20035;-71
2022/04/03 08:24:34;;;;;;;5.73;2.00;;;;;;;4.15;100.00;-19275.44;5027803;28;20079;-71
2022/04/03 08:27:00;;;;;;;4.37;1.53;;;;;;;4.29;100.00;-19279.13;5028916;28;20435;-71
2022/04/03 08:29:25;;;;;;;4.37;1.60;;;;;;;4.53;100.00;-19285.50;5031583;28;20031;-71
2022/04/03 08:31:50;;;;;;;4.27;1.60;;;;;;;4.24;100.00;-19277.94;5028871;28;20119;-72
2022/04/03 08:34:17;;;;;;;5.63;1.70;;;;;;;4.79;100.00;-19292.13;5030598;28;20075;-71
2022/04/03 08:36:42;;;;;;;5.93;1.87;;;;;;;4.34;100.00;-19280.47;5010878;28;20041;-71
2022/04/03 08:39:08;;;;;;;4.90;1.80;;;;;;;4.68;100.00;-19289.34;5025604;28;20488;-71
2022/04/03 08:41:35;;;;;;;3.73;1.63;;;;;;;5.14;100.00;-19301.25;5036875;28;20122;-71
2022/04/03 08:44:01;;;;;;;6.67;2.10;;;;;;;4.90;100.00;-19295.03;5003085;28;20029;-71
2022/04/03 08:46:32;;;;;;;5.00;1.77;;;;;;;5.63;100.00;-19313.97;5029455;28;20083;-71
2022/04/03 08:48:59;;;;;;;3.35;1.63;;;;;;;5.33;100.00;-19306.16;5020172;28;20082;-71
2022/04/03 08:51:27;;;;;;;4.17;1.80;;;;;;;6.01;100.00;-19323.88;5037571;28;20504;-71
2022/04/03 08:53:53;;;;;;;5.20;1.80;;;;;;;6.51;100.00;-19336.97;5029756;28;20033;-71
2022/04/03 08:56:19;;;;;;;5.17;1.77;;;;;;;7.96;100.00;-19374.63;5038363;28;20393;-71
2022/04/03 08:58:44;;;;;;;3.50;1.53;;;;;;;8.06;100.00;-19377.25;5039813;28;20029;-71
2022/04/03 09:01:10;;;;;;;5.83;1.80;;;;;;;7.41;100.00;-19360.22;5011030;28;20029;-70
2022/04/03 09:03:37;;;;;;;4.27;1.43;;;;;;;6.51;100.00;-19336.84;5035866;28;20024;-70
2022/04/03 09:06:16;;;;;;;5.03;1.60;;;;;;;7.04;100.00;-19350.84;5038910;28;20040;-70
2022/04/03 09:08:42;;;;;;;4.03;1.50;;;;;;;7.96;100.00;-19374.63;5029703;28;20501;-71
2022/04/03 09:11:10;;;;;;;4.53;2.10;;;;;;;8.16;100.00;-19379.91;5038512;28;20050;-71
2022/04/03 09:13:38;;;;;;;4.47;1.47;;;;;;;7.86;100.00;-19371.97;5029478;28;20039;-70
2022/04/03 09:16:05;;;;;;;4.63;1.30;;;;;;;7.11;100.00;-19352.44;5035940;28;20087;-70
2022/04/03 09:18:52;;;;;;;6.50;1.43;;;;;;;6.74;100.00;-19342.94;5030420;28;20029;-71
2022/04/03 09:21:23;;;;;;;6.87;1.77;;;;;;;6.22;100.00;-19329.31;5027341;28;20385;-71
2022/04/03 09:24:06;;;;;;;8.80;1.80;;;;;;;6.97;100.00;-19349.00;5032168;28;20543;-71
2022/04/03 09:26:33;;;;;;;5.93;1.80;;;;;;;6.65;100.00;-19340.53;5026289;28;20030;-71
2022/04/03 09:29:25;;;;;;;6.30;1.60;;;;;;;6.59;100.00;-19338.97;5033672;28;20511;-71
2022/04/03 09:31:59;;;;;;;7.25;1.88;;;;;;;6.27;100.00;-19330.75;5020947;28;20507;-71
2022/04/03 09:34:26;;;;;;;5.17;1.70;;;;;;;5.56;100.00;-19312.25;5031334;28;20439;-71
2022/04/03 09:37:05;;;;;;;5.47;1.73;;;;;;;5.42;100.00;-19308.66;5024768;28;20025;-71
2022/04/03 09:39:32;;;;;;;7.03;1.87;;;;;;;6.15;100.00;-19327.59;5039121;28;20036;-71
2022/04/03 09:42:04;;;;;;;4.73;1.80;;;;;;;6.88;100.00;-19346.63;5037943;28;20033;-71
2022/04/03 09:44:31;;;;;;;4.07;1.63;;;;;;;5.95;100.00;-19322.31;5026381;28;20107;-71
2022/04/03 09:47:16;;;;;;;5.90;1.97;;;;;;;7.28;100.00;-19356.94;5028249;28;20038;-71
2022/04/03 09:50:03;;;;;;;4.67;1.70;;;;;;;9.16;100.00;-19405.75;5024129;28;20047;-69
2022/04/03 09:52:32;;;;;;;5.10;1.70;;;;;;;8.68;100.00;-19393.34;5026554;28;20592;-69
2022/04/03 09:54:57;;;;;;;4.30;1.60;;;;;;;8.46;100.00;-19387.56;5022334;28;20107;-68
2022/04/03 09:57:26;;;;;;;5.10;1.70;;;;;;;7.91;100.00;-19373.31;5028289;28;20077;-68
2022/04/03 09:59:53;;;;;;;6.83;1.60;;;;;;;7.41;100.00;-19360.38;5036756;28;20080;-69
2022/04/03 10:02:20;;;;;;;7.13;1.80;;;;;;;7.98;100.00;-19375.16;5017086;28;20036;-69
2022/04/03 10:04:46;;;;;;;6.70;1.97;;;;;;;6.92;100.00;-19347.56;5017730;28;20086;-69
2022/04/03 10:07:15;;;;;;;3.80;1.47;;;;;;;7.83;100.00;-19371.31;5038898;28;20028;-69
2022/04/03 10:09:48;;;;;;;4.57;1.47;;;;;;;8.59;100.00;-19390.84;5035406;28;20037;-69
2022/04/03 10:12:16;;;;;;;3.20;1.23;;;;;;;9.81;100.00;-19422.63;5030161;28;20079;-69
2022/04/03 10:14:43;;;;;;;4.50;1.37;;;;;;;10.36;100.00;-19436.72;5022108;28;20025;-69
2022/04/03 10:17:08;;;;;;;5.23;1.30;;;;;;;9.47;100.00;-19413.78;5030819;28;20477;-69
2022/04/03 10:19:34;;;;;;;4.90;1.40;;;;;;;8.67;100.00;-19393.09;5030057;28;20110;-69
2022/04/03 10:22:01;;;;;;;4.03;1.47;;;;;;;8.37;100.00;-19385.19;5039715;28;20108;-69
2022/04/03 10:24:29;;;;;;;4.07;1.20;;;;;;;8.03;100.00;-19376.47;5031015;28;20036;-69
2022/04/03 10:27:16;;;;;;;5.00;1.30;;;;;;;8.74;100.00;-19394.94;5030527;28;20033;-69
2022/04/03 10:29:43;;;;;;;3.33;1.20;;;;;;;9.11;100.00;-19404.44;5033003;28;20508;-69
2022/04/03 10:32:21;;;;;;;2.77;1.20;;;;;;;7.63;100.00;-19366.19;5031411;28;20033;-69
2022/04/03 10:34:49;;;;;;;5.00;1.90;;;;;;;6.67;100.00;-19341.06;5029175;28;20489;-69
2022/04/03 10:37:38;;;;;;;4.63;2.00;;;;;;;7.03;100.00;-19350.47;5043335;28;20075;-69
2022/04/03 10:40:11;;;;;;;4.07;1.10;;;;;;;7.14;100.00;-19353.34;5037633;28;20056;-69
2022/04/03 10:42:48;;;;;;;3.60;1.63;;;;;;;7.86;100.00;-19371.97;5035834;28;20447;-69
2022/04/03 10:45:13;;;;;;;5.63;1.67;;;;;;;7.96;100.00;-19374.50;5018078;28;20048;-69
2022/04/03 10:47:43;;;;;;;3.87;1.40;;;;;;;8.58;100.00;-19390.72;5028867;28;20025;-69
2022/04/03 10:50:10;;;;;;;4.80;1.40;;;;;;;7.67;100.00;-19366.97;5029426;28;20496;-69
2022/04/03 10:52:35;;;;;;;6.53;1.50;;;;;;;8.46;100.00;-19387.56;5029515;28;20068;-69
2022/04/03 10:55:02;;;;;;;8.20;1.27;;;;;;;9.30;100.00;-19409.44;5033188;28;20060;-69
2022/04/03 10:57:47;;;;;;;3.67;1.33;;;;;;;8.57;100.00;-19390.31;5031129;28;20041;-70
2022/04/03 11:00:12;;;;;;;5.63;1.30;;;;;;;8.45;100.00;-19387.28;5035565;28;20121;-70
2022/04/03 11:02:43;;;;;;;8.23;1.40;;;;;;;7.87;100.00;-19372.38;5031423;28;20485;-70
2022/04/03 11:05:27;;;;;;;5.30;1.40;;;;;;;7.92;100.00;-19373.56;5029733;28;20040;-69
2022/04/03 11:07:59;;;;;;;4.17;1.20;;;;;;;7.72;100.00;-19368.28;5035000;28;20033;-70
2022/04/03 11:10:45;;;;;;;;;;;;;;;7.64;100.00;-19366.31;5032985;28;20052;-69
2022/04/03 11:13:10;;;;;;;8.43;1.60;;;;;;;7.74;100.00;-19368.94;5033900;28;19952;-69
2022/04/03 11:15:54;;;;;;;2.80;1.07;;;;;;;7.96;100.00;-19374.50;5030166;28;20110;-69
2022/04/03 11:18:51;;;;;;;3.50;1.30;;;;;;;7.76;100.00;-19369.34;5025084;28;20114;-70
2022/04/03 11:21:31;;;;;;;3.60;1.23;;;;;;;8.02;100.00;-19376.19;5010906;28;20040;-70